Crapo, Maryland
Current Conditions -  °F | °C
As of 11:52 AM on Wednesday 22 Oct 2014 (Local Time) from KNHK Reporting Station
Light Rain Light Rain  
Wind Chill: 55°   Ceiling: 900
Heat Index: 55°   Visibility: 3mi
Dew Point: 53°   Wind: 21mph
Humidity: 93%   Direction: 330°NNW
Pressure: 29.86"   Gusts: 28mph
Location:  38.32°N, 76.13°W
Report Text: KNHK 221552Z 33018G24KT 3SM -RA BR BKN009 OVC014 13/12 A2986 RMK AO2 SLP111 T2 SET P0014 T01280117
Loading
Personal Weather Stations






























Interactive Weather Map
Tropical Storm Tracking
New forecast layout! Learn more

10-Day Weather Forecast

Advertisements
Track Severe Weather on mobile